Terminal Aerodrome Forecast
Issued by NWS

Home | Current Version | Previous Version | Text Only | Print | Product List | Glossary On
Versions: 1 2 3 4 5 6 7 8 9 10 11 12 13 14 15 16
000
FTUS42 KTAE 040539
TAFABY
TAF
KABY 040539Z 0406/0506 20004KT P6SM FEW250
      TEMPO 0410/0413 BKN015
     FM041300 25009KT P6SM SCT030
     FM041800 24009KT P6SM VCTS BKN040CB
      TEMPO 0418/0422 VRB15G25KT 2SM TSRA SCT010 BKN030CB
     FM050300 23003KT P6SM BKN250=

USA.gov is the U.S. government's official web portal to all federal, state and local government web resources and services.